createdAt,value
2018-01-17T00:00:32.868Z,98498
2018-01-17T00:03:01.964Z,98501
2018-01-17T00:05:31.122Z,98498
2018-01-17T00:08:00.217Z,98499
2018-01-17T00:10:30.131Z,98500
2018-01-17T00:13:00.105Z,98500
2018-01-17T00:15:29.189Z,98507
2018-01-17T00:17:58.307Z,98507
2018-01-17T00:20:27.508Z,98498
2018-01-17T00:22:56.634Z,98499
2018-01-17T00:25:25.749Z,98504
2018-01-17T00:27:55.079Z,98494
2018-01-17T00:30:24.177Z,98475
2018-01-17T00:32:53.282Z,98472
2018-01-17T00:35:22.799Z,98471
2018-01-17T00:37:51.933Z,98471
2018-01-17T00:40:21.181Z,98475
2018-01-17T00:42:51.130Z,98471
2018-01-17T00:45:20.235Z,98465
2018-01-17T00:47:49.344Z,98461
2018-01-17T00:50:18.515Z,98462
2018-01-17T00:52:47.640Z,98463
2018-01-17T00:55:17.526Z,98472
2018-01-17T00:57:46.747Z,98471
2018-01-17T01:00:15.884Z,98471
2018-01-17T01:02:45.759Z,98477
2018-01-17T01:05:14.872Z,98475
2018-01-17T01:07:45.089Z,98467
2018-01-17T01:10:14.235Z,98463
2018-01-17T01:12:44.221Z,98461
2018-01-17T01:15:13.341Z,98457
2018-01-17T01:17:42.486Z,98453
2018-01-17T01:20:11.816Z,98451
2018-01-17T01:22:41.080Z,98452
2018-01-17T01:25:10.340Z,98451
2018-01-17T01:27:39.688Z,98459
2018-01-17T01:30:09.574Z,98455
2018-01-17T01:32:38.750Z,98452
2018-01-17T01:35:07.914Z,98444
2018-01-17T01:37:37.945Z,98439
2018-01-17T01:40:07.881Z,98440
2018-01-17T01:42:37.816Z,98444
2018-01-17T01:45:07.220Z,98434
2018-01-17T01:47:37.166Z,98435
2018-01-17T01:50:06.387Z,98438
2018-01-17T01:52:35.547Z,98435
2018-01-17T01:55:05.909Z,98438
2018-01-17T01:57:35.842Z,98438
2018-01-17T02:00:05.738Z,98440
2018-01-17T02:02:34.964Z,98448
2018-01-17T02:05:04.181Z,98447
2018-01-17T02:07:33.352Z,98452
2018-01-17T02:10:02.456Z,98451
2018-01-17T02:12:31.943Z,98455
2018-01-17T02:15:01.144Z,98457
2018-01-17T02:17:30.242Z,98455
2018-01-17T02:20:00.355Z,98457
2018-01-17T02:22:29.449Z,98458
2018-01-17T02:24:58.567Z,98459
2018-01-17T02:27:27.706Z,98454
2018-01-17T02:29:57.552Z,98447
2018-01-17T02:32:26.629Z,98444
2018-01-17T02:34:56.056Z,98441
2018-01-17T02:37:25.960Z,98438
2018-01-17T02:40:13.612Z,98442
2018-01-17T02:42:42.836Z,98440
2018-01-17T02:45:11.994Z,98445
2018-01-17T02:47:41.296Z,98448
2018-01-17T02:50:10.452Z,98444
2018-01-17T02:52:39.569Z,98438
2018-01-17T02:55:08.766Z,98433
2018-01-17T02:57:37.940Z,98427
2018-01-17T03:00:07.082Z,98425
2018-01-17T03:02:36.627Z,98427
2018-01-17T03:05:05.819Z,98423
2018-01-17T03:07:35.170Z,98423
2018-01-17T03:10:04.545Z,98428
2018-01-17T03:12:34.560Z,98425
2018-01-17T03:15:04.693Z,98423
2018-01-17T03:17:33.961Z,98422
2018-01-17T03:20:03.099Z,98419
2018-01-17T03:22:32.205Z,98421
2018-01-17T03:25:01.472Z,98418
2018-01-17T03:27:31.508Z,98421
2018-01-17T03:30:00.913Z,98422
2018-01-17T03:32:31.041Z,98417
2018-01-17T03:35:00.908Z,98419
2018-01-17T03:37:30.078Z,98415
2018-01-17T03:39:59.976Z,98418
2018-01-17T03:42:29.065Z,98421
2018-01-17T03:44:58.208Z,98422
2018-01-17T03:47:27.349Z,98422
2018-01-17T03:49:56.448Z,98422
2018-01-17T03:52:26.397Z,98425
2018-01-17T03:54:56.225Z,98433
2018-01-17T03:57:25.328Z,98428
2018-01-17T03:59:54.422Z,98429
2018-01-17T04:02:23.557Z,98425
2018-01-17T04:04:52.659Z,98429
2018-01-17T04:07:21.868Z,98428
2018-01-17T04:09:50.998Z,98428
2018-01-17T04:12:20.082Z,98428
2018-01-17T04:14:49.189Z,98429
2018-01-17T04:17:18.725Z,98425
2018-01-17T04:19:47.821Z,98428
2018-01-17T04:22:16.931Z,98426
2018-01-17T04:24:47.398Z,98420
2018-01-17T04:27:16.510Z,98429
2018-01-17T04:29:45.689Z,98434
2018-01-17T04:32:15.141Z,98436
2018-01-17T04:34:44.309Z,98433
2018-01-17T04:37:13.431Z,98440
2018-01-17T04:39:42.677Z,98441
2018-01-17T04:42:11.843Z,98441
2018-01-17T04:44:41.161Z,98439
2018-01-17T04:47:10.324Z,98442
2018-01-17T04:49:40.234Z,98442
2018-01-17T04:52:09.454Z,98431
2018-01-17T04:54:38.664Z,98427
2018-01-17T04:57:08.945Z,98428
2018-01-17T04:59:38.915Z,98431
2018-01-17T05:02:08.171Z,98426
2018-01-17T05:04:37.296Z,98429
2018-01-17T05:07:06.423Z,98429
2018-01-17T05:09:35.642Z,98435
2018-01-17T05:12:04.920Z,98439
2018-01-17T05:14:34.893Z,98442
2018-01-17T05:17:04.136Z,98438
2018-01-17T05:19:33.255Z,98448
2018-01-17T05:22:03.328Z,98447
2018-01-17T05:24:32.477Z,98443
2018-01-17T05:27:01.687Z,98445
2018-01-17T05:29:30.841Z,98445
2018-01-17T05:32:00.226Z,98447
2018-01-17T05:34:29.341Z,98445
2018-01-17T05:36:58.457Z,98445
2018-01-17T05:39:28.402Z,98448
2018-01-17T05:41:57.542Z,98445
2018-01-17T05:44:26.668Z,98448
2018-01-17T05:46:56.215Z,98459
2018-01-17T05:49:26.083Z,98465
2018-01-17T05:51:55.209Z,98468
2018-01-17T05:54:24.619Z,98472
2018-01-17T05:56:53.809Z,98477
2018-01-17T05:59:23.685Z,98480
2018-01-17T06:01:53.618Z,98485
2018-01-17T06:04:22.777Z,98486
2018-01-17T06:06:51.901Z,98490
2018-01-17T06:09:21.258Z,98495
2018-01-17T06:11:50.380Z,98500
2018-01-17T06:14:24.373Z,98501
2018-01-17T06:16:55.135Z,98511
2018-01-17T06:19:24.594Z,98515
2018-01-17T06:21:53.719Z,98506
2018-01-17T06:24:22.827Z,98505
2018-01-17T06:26:51.986Z,98505
2018-01-17T06:29:22.120Z,98500
2018-01-17T06:31:51.272Z,98504
2018-01-17T06:34:20.460Z,98507
2018-01-17T06:36:49.563Z,98511
2018-01-17T06:39:18.684Z,98508
2018-01-17T06:41:47.856Z,98514
2018-01-17T06:44:17.746Z,98526
2018-01-17T06:46:46.942Z,98526
2018-01-17T06:49:16.106Z,98531
2018-01-17T06:51:45.355Z,98529
2018-01-17T06:54:14.847Z,98525
2018-01-17T06:56:45.129Z,98527
2018-01-17T06:59:15.057Z,98531
2018-01-17T07:01:44.257Z,98531
2018-01-17T07:04:13.765Z,98540
2018-01-17T07:06:43.001Z,98546
2018-01-17T07:09:12.971Z,98553
2018-01-17T07:11:43.678Z,98559
2018-01-17T07:14:12.924Z,98564
2018-01-17T07:16:42.070Z,98564
2018-01-17T07:19:11.412Z,98569
2018-01-17T07:21:40.589Z,98564
2018-01-17T07:24:10.637Z,98571
2018-01-17T07:26:39.777Z,98572
2018-01-17T07:29:09.112Z,98578
2018-01-17T07:31:38.304Z,98580
2018-01-17T07:34:07.830Z,98581
2018-01-17T07:36:37.026Z,98586
2018-01-17T07:39:06.585Z,98589
2018-01-17T07:41:35.882Z,98585
2018-01-17T07:44:05.030Z,98589
2018-01-17T07:46:35.047Z,98588
2018-01-17T07:49:05.035Z,98592
2018-01-17T07:51:34.161Z,98606
2018-01-17T07:54:03.579Z,98607
2018-01-17T07:56:33.551Z,98609
2018-01-17T07:59:02.798Z,98616
2018-01-17T08:01:31.901Z,98619
2018-01-17T08:04:01.955Z,98617
2018-01-17T08:06:31.052Z,98624
2018-01-17T08:09:00.199Z,98626
2018-01-17T08:11:29.559Z,98633
2018-01-17T08:13:59.440Z,98638
2018-01-17T08:16:29.483Z,98642
2018-01-17T08:18:58.625Z,98649
2018-01-17T08:21:28.545Z,98658
2018-01-17T08:23:58.583Z,98657
2018-01-17T08:26:28.500Z,98664
2018-01-17T08:28:57.645Z,98662
2018-01-17T08:31:26.765Z,98672
2018-01-17T08:33:55.888Z,98669
2018-01-17T08:36:25.009Z,98676
2018-01-17T08:38:54.143Z,98675
2018-01-17T08:41:23.596Z,98680
2018-01-17T08:43:52.709Z,98685
2018-01-17T08:46:22.594Z,98690
2018-01-17T08:48:52.104Z,98688
2018-01-17T08:51:22.027Z,98696
2018-01-17T08:53:51.160Z,98691
2018-01-17T08:56:20.697Z,98704
2018-01-17T08:58:49.920Z,98711
2018-01-17T09:01:19.809Z,98720
2018-01-17T09:03:49.019Z,98729
2018-01-17T09:06:18.157Z,98736
2018-01-17T09:08:47.707Z,98742
2018-01-17T09:11:16.837Z,98749
2018-01-17T09:13:45.945Z,98752
2018-01-17T09:16:15.046Z,98751
2018-01-17T09:18:44.506Z,98756
2018-01-17T09:21:13.647Z,98757
2018-01-17T09:23:43.774Z,98761
2018-01-17T09:26:13.673Z,98774
2018-01-17T09:28:44.560Z,98781
2018-01-17T09:31:14.487Z,98787
2018-01-17T09:33:44.421Z,98785
2018-01-17T09:36:14.320Z,98786
2018-01-17T09:38:43.668Z,98796
2018-01-17T09:41:12.863Z,98787
2018-01-17T09:43:42.157Z,98791
2018-01-17T09:46:11.354Z,98791
2018-01-17T09:48:40.455Z,98790
2018-01-17T09:51:09.646Z,98794
2018-01-17T09:53:38.859Z,98801
2018-01-17T09:56:08.046Z,98801
2018-01-17T09:58:37.238Z,98806
2018-01-17T10:01:07.262Z,98800
2018-01-17T10:03:36.623Z,98808
2018-01-17T10:06:05.738Z,98808
2018-01-17T10:08:34.948Z,98812
2018-01-17T10:11:04.976Z,98816
2018-01-17T10:13:34.186Z,98819
2018-01-17T10:16:03.985Z,98827
2018-01-17T10:18:34.899Z,98828
2018-01-17T10:21:04.354Z,98825
2018-01-17T10:23:34.069Z,98824
2018-01-17T10:26:03.291Z,98820
2018-01-17T10:28:33.262Z,98825
2018-01-17T10:31:02.401Z,98826
2018-01-17T10:33:31.708Z,98827
2018-01-17T10:36:00.838Z,98828
2018-01-17T10:38:29.945Z,98837
2018-01-17T10:40:59.066Z,98854
2018-01-17T10:43:28.462Z,98850
2018-01-17T10:45:57.586Z,98854
2018-01-17T10:48:26.689Z,98847
2018-01-17T10:50:55.829Z,98852
2018-01-17T10:53:25.998Z,98850
2018-01-17T10:55:55.120Z,98850
2018-01-17T10:58:24.358Z,98854
2018-01-17T11:00:53.461Z,98848
2018-01-17T11:03:22.580Z,98845
2018-01-17T11:05:51.713Z,98850
2018-01-17T11:08:20.873Z,98838
2018-01-17T11:10:49.992Z,98835
2018-01-17T11:13:19.425Z,98834
2018-01-17T11:15:48.539Z,98842
2018-01-17T11:18:18.473Z,98836
2018-01-17T11:20:48.406Z,98832
2018-01-17T11:23:17.549Z,98840
2018-01-17T11:25:46.723Z,98848
2018-01-17T11:28:16.820Z,98862
2018-01-17T11:30:46.063Z,98860
2018-01-17T11:33:16.035Z,98867
2018-01-17T11:35:45.333Z,98876
2018-01-17T11:38:14.481Z,98869
2018-01-17T11:40:43.630Z,98871
2018-01-17T11:43:13.618Z,98871
2018-01-17T11:45:42.932Z,98878
2018-01-17T11:48:12.137Z,98872
2018-01-17T11:50:41.412Z,98877
2018-01-17T11:53:10.588Z,98871
2018-01-17T11:55:40.662Z,98889
2018-01-17T11:58:09.913Z,98892
2018-01-17T12:00:39.115Z,98899
2018-01-17T12:03:08.251Z,98892
2018-01-17T12:05:38.302Z,98892
2018-01-17T12:08:08.228Z,98886
2018-01-17T12:10:38.157Z,98895
2018-01-17T12:13:07.390Z,98894
2018-01-17T12:15:36.519Z,98902
2018-01-17T12:18:05.935Z,98898
2018-01-17T12:20:35.156Z,98896
2018-01-17T12:23:04.432Z,98900
2018-01-17T12:25:33.585Z,98904
2018-01-17T12:28:02.877Z,98917
2018-01-17T12:30:32.024Z,98926
2018-01-17T12:33:01.177Z,98929
2018-01-17T12:35:30.307Z,98935
2018-01-17T12:37:59.470Z,98936
2018-01-17T12:40:28.601Z,98924
2018-01-17T12:42:57.979Z,98934
2018-01-17T12:45:27.136Z,98931
2018-01-17T12:47:56.249Z,98939
2018-01-17T12:50:25.388Z,98928
2018-01-17T12:52:54.542Z,98925
2018-01-17T12:55:24.454Z,98928
2018-01-17T12:57:53.593Z,98925
2018-01-17T13:00:22.711Z,98922
2018-01-17T13:02:51.888Z,98921
2018-01-17T13:05:22.195Z,98933
2018-01-17T13:07:51.357Z,98927
2018-01-17T13:10:20.466Z,98935
2018-01-17T13:12:49.747Z,98939
2018-01-17T13:15:19.782Z,98942
2018-01-17T13:17:48.889Z,98938
2018-01-17T13:20:18.276Z,98954
2018-01-17T13:22:47.402Z,98945
2018-01-17T13:25:16.550Z,98947
2018-01-17T13:27:45.788Z,98938
2018-01-17T13:30:14.884Z,98946
2018-01-17T13:32:44.079Z,98940
2018-01-17T13:35:13.322Z,98950
2018-01-17T13:37:42.510Z,98959
2018-01-17T13:40:11.743Z,98958
2018-01-17T13:42:40.924Z,98963
2018-01-17T13:45:10.276Z,98973
2018-01-17T13:47:39.575Z,98967
2018-01-17T13:50:08.903Z,98979
2018-01-17T13:52:38.206Z,98980
2018-01-17T13:55:08.530Z,98982
2018-01-17T13:57:37.875Z,98986
2018-01-17T14:00:08.069Z,99002
2018-01-17T14:02:37.253Z,99010
2018-01-17T14:05:07.570Z,99012
2018-01-17T14:07:37.683Z,99012
2018-01-17T14:10:07.092Z,99008
2018-01-17T14:12:36.698Z,99016
2018-01-17T14:15:06.158Z,99027
2018-01-17T14:17:36.293Z,99029
2018-01-17T14:20:05.623Z,99034
2018-01-17T14:22:35.875Z,99041
2018-01-17T14:25:05.119Z,99046
2018-01-17T14:27:34.606Z,99045
2018-01-17T14:30:03.924Z,99053
2018-01-17T14:32:33.068Z,99051
2018-01-17T14:35:03.063Z,99060
2018-01-17T14:37:32.153Z,99064
2018-01-17T14:40:02.138Z,99072
2018-01-17T14:42:31.286Z,99067
2018-01-17T14:45:00.435Z,99074
2018-01-17T14:47:29.552Z,99077
2018-01-17T14:49:58.695Z,99079
2018-01-17T14:52:27.944Z,99076
2018-01-17T14:54:58.111Z,99085
2018-01-17T14:57:27.481Z,99083
2018-01-17T14:59:58.113Z,99088
2018-01-17T15:02:27.230Z,99091
2018-01-17T15:04:57.189Z,99091
2018-01-17T15:07:26.390Z,99096
2018-01-17T15:09:56.109Z,99098
2018-01-17T15:12:26.101Z,99107
2018-01-17T15:14:55.239Z,99101
2018-01-17T15:17:25.226Z,99115
2018-01-17T15:19:54.413Z,99119
2018-01-17T15:22:23.567Z,99119
2018-01-17T15:24:52.679Z,99125
2018-01-17T15:27:21.880Z,99121
2018-01-17T15:29:50.984Z,99128
2018-01-17T15:32:20.150Z,99123
2018-01-17T15:34:49.305Z,99124
2018-01-17T15:37:19.033Z,99131
2018-01-17T15:39:48.178Z,99131
2018-01-17T15:42:18.162Z,99140
2018-01-17T15:44:48.434Z,99148
2018-01-17T15:47:18.355Z,99151
2018-01-17T15:49:48.358Z,99158
2018-01-17T15:52:17.494Z,99158
2018-01-17T15:54:47.458Z,99167
2018-01-17T15:57:16.587Z,99170
2018-01-17T15:59:45.902Z,99176
2018-01-17T16:02:15.102Z,99173
2018-01-17T16:04:44.360Z,99174
2018-01-17T16:07:14.435Z,99174
2018-01-17T16:09:43.710Z,99181
2018-01-17T16:12:13.948Z,99175
2018-01-17T16:14:43.949Z,99183
2018-01-17T16:17:13.266Z,99187
2018-01-17T16:19:42.517Z,99190
2018-01-17T16:22:11.798Z,99192
2018-01-17T16:24:41.054Z,99198
2018-01-17T16:27:10.227Z,99203
2018-01-17T16:29:40.244Z,99205
2018-01-17T16:32:10.314Z,99214
2018-01-17T16:34:39.482Z,99215
2018-01-17T16:37:10.888Z,99213
2018-01-17T16:39:41.234Z,99219
2018-01-17T16:42:11.430Z,99225
2018-01-17T16:44:40.817Z,99234
2018-01-17T16:47:10.702Z,99241
2018-01-17T16:49:40.076Z,99240
2018-01-17T16:52:09.348Z,99242
2018-01-17T16:54:38.655Z,99250
2018-01-17T16:57:08.132Z,99252
2018-01-17T16:59:37.442Z,99257
2018-01-17T17:02:06.706Z,99256
2018-01-17T17:04:36.684Z,99265
2018-01-17T17:07:06.799Z,99258
2018-01-17T17:09:36.102Z,99272
2018-01-17T17:12:05.337Z,99277
2018-01-17T17:14:34.600Z,99265
2018-01-17T17:17:03.899Z,99275
2018-01-17T17:19:33.028Z,99277
2018-01-17T17:22:02.295Z,99281
2018-01-17T17:24:31.464Z,99283
2018-01-17T17:27:00.687Z,99285
2018-01-17T17:29:29.886Z,99286
2018-01-17T17:31:59.839Z,99290
2018-01-17T17:34:29.712Z,99301
2018-01-17T17:36:58.820Z,99303
2018-01-17T17:39:28.108Z,99307
2018-01-17T17:41:57.261Z,99308
2018-01-17T17:44:26.708Z,99319
2018-01-17T17:46:55.868Z,99330
2018-01-17T17:49:25.026Z,99322
2018-01-17T17:51:54.950Z,99322
2018-01-17T17:54:24.134Z,99333
2018-01-17T17:56:53.230Z,99335
2018-01-17T17:59:23.314Z,99337
2018-01-17T18:01:53.559Z,99337
2018-01-17T18:04:22.694Z,99338
2018-01-17T18:06:51.940Z,99343
2018-01-17T18:09:21.953Z,99360
2018-01-17T18:11:51.225Z,99354
2018-01-17T18:14:21.163Z,99354
2018-01-17T18:16:50.317Z,99359
2018-01-17T18:19:19.564Z,99361
2018-01-17T18:21:49.812Z,99355
2018-01-17T18:24:19.302Z,99357
2018-01-17T18:26:48.421Z,99362
2018-01-17T18:29:18.479Z,99359
2018-01-17T18:31:47.897Z,99358
2018-01-17T18:34:17.049Z,99356
2018-01-17T18:36:46.291Z,99359
2018-01-17T18:39:16.311Z,99360
2018-01-17T18:41:46.296Z,99366
2018-01-17T18:44:15.790Z,99364
2018-01-17T18:46:45.355Z,99378
2018-01-17T18:49:14.529Z,99379
2018-01-17T18:51:43.730Z,99384
2018-01-17T18:54:13.231Z,99383
2018-01-17T18:56:43.285Z,99386
2018-01-17T18:59:12.609Z,99384
2018-01-17T19:01:41.974Z,99383
2018-01-17T19:04:11.398Z,99382
2018-01-17T19:06:42.850Z,99385
2018-01-17T19:09:12.013Z,99394
2018-01-17T19:11:42.628Z,99390
2018-01-17T19:14:11.865Z,99398
2018-01-17T19:16:44.333Z,99401
2018-01-17T19:19:13.806Z,99409
2018-01-17T19:21:43.518Z,99406
2018-01-17T19:24:13.978Z,99407
2018-01-17T19:26:43.260Z,99410
2018-01-17T19:29:12.408Z,99416
2018-01-17T19:31:41.742Z,99415
2018-01-17T19:34:12.066Z,99413
2018-01-17T19:36:41.275Z,99421
2018-01-17T19:39:11.306Z,99409
2018-01-17T19:41:40.649Z,99418
2018-01-17T19:44:09.875Z,99414
2018-01-17T19:46:39.397Z,99414
2018-01-17T19:49:08.877Z,99418
2018-01-17T19:51:39.861Z,99429
2018-01-17T19:54:09.152Z,99430
2018-01-17T19:56:38.364Z,99429
2018-01-17T19:59:07.792Z,99432
2018-01-17T20:01:37.761Z,99435
2018-01-17T20:04:07.764Z,99434
2018-01-17T20:06:36.974Z,99438
2018-01-17T20:09:06.343Z,99436
2018-01-17T20:11:35.835Z,99441
2018-01-17T20:14:05.127Z,99437
2018-01-17T20:16:34.357Z,99442
2018-01-17T20:19:03.475Z,99436
2018-01-17T20:21:32.656Z,99442
2018-01-17T20:24:02.119Z,99431
2018-01-17T20:26:31.283Z,99429
2018-01-17T20:29:00.449Z,99436
2018-01-17T20:31:30.468Z,99442
2018-01-17T20:33:59.568Z,99448
2018-01-17T20:36:28.694Z,99451
2018-01-17T20:38:58.671Z,99460
2018-01-17T20:41:27.807Z,99462
2018-01-17T20:43:56.972Z,99468
2018-01-17T20:46:26.442Z,99464
2018-01-17T20:48:55.613Z,99469
2018-01-17T20:51:24.693Z,99476
2018-01-17T20:53:54.610Z,99470
2018-01-17T20:56:24.503Z,99474
2018-01-17T20:58:53.678Z,99479
2018-01-17T21:01:22.924Z,99479
2018-01-17T21:03:53.081Z,99478
2018-01-17T21:06:22.313Z,99479
2018-01-17T21:08:52.549Z,99479
2018-01-17T21:11:21.713Z,99473
2018-01-17T21:13:51.000Z,99473
2018-01-17T21:16:20.345Z,99475
2018-01-17T21:18:49.620Z,99473
2018-01-17T21:21:18.804Z,99470
2018-01-17T21:23:47.969Z,99475
2018-01-17T21:26:17.462Z,99473
2018-01-17T21:28:47.041Z,99475
2018-01-17T21:31:17.075Z,99477
2018-01-17T21:33:46.190Z,99469
2018-01-17T21:36:16.154Z,99477
2018-01-17T21:38:45.338Z,99479
2018-01-17T21:41:15.254Z,99481
2018-01-17T21:46:52.074Z,99489
2018-01-17T21:49:22.014Z,99484
2018-01-17T21:51:51.934Z,99488
2018-01-17T21:54:21.869Z,99490
2018-01-17T21:56:51.138Z,99489
2018-01-17T21:59:20.270Z,99491
2018-01-17T22:01:50.182Z,99490
2018-01-17T22:04:19.720Z,99486
2018-01-17T22:06:48.903Z,99493
2018-01-17T22:09:18.105Z,99494
2018-01-17T22:11:47.278Z,99491
2018-01-17T22:14:16.534Z,99497
2018-01-17T22:16:45.760Z,99508
2018-01-17T22:19:14.900Z,99507
2018-01-17T22:21:44.817Z,99505
2018-01-17T22:24:14.112Z,99503
2018-01-17T22:26:43.374Z,99499
2018-01-17T22:29:12.602Z,99493
2018-01-17T22:31:41.988Z,99500
2018-01-17T22:34:11.426Z,99494
2018-01-17T22:36:40.832Z,99495
2018-01-17T22:39:10.294Z,99492
2018-01-17T22:41:39.512Z,99506
2018-01-17T22:44:09.539Z,99500
2018-01-17T22:46:39.956Z,99500
2018-01-17T22:49:09.596Z,99501
2018-01-17T22:51:39.073Z,99500
2018-01-17T22:54:08.454Z,99508
2018-01-17T22:56:37.894Z,99507
2018-01-17T22:59:07.129Z,99508
2018-01-17T23:01:36.261Z,99508
2018-01-17T23:04:05.586Z,99509
2018-01-17T23:06:34.808Z,99521
2018-01-17T23:09:04.147Z,99528
2018-01-17T23:11:33.505Z,99529
2018-01-17T23:14:02.688Z,99528
2018-01-17T23:16:32.049Z,99522
2018-01-17T23:19:01.345Z,99532
2018-01-17T23:21:30.559Z,99533
2018-01-17T23:23:59.788Z,99543
2018-01-17T23:26:29.237Z,99536
2018-01-17T23:28:58.377Z,99533
2018-01-17T23:31:27.537Z,99533
2018-01-17T23:33:57.037Z,99543
2018-01-17T23:36:26.176Z,99539
2018-01-17T23:38:56.140Z,99550
2018-01-17T23:41:25.320Z,99554
2018-01-17T23:43:55.221Z,99555
2018-01-17T23:46:24.360Z,99557
2018-01-17T23:48:54.274Z,99560
2018-01-17T23:51:24.163Z,99558
2018-01-17T23:53:53.386Z,99556
2018-01-17T23:56:22.613Z,99559
2018-01-17T23:58:51.793Z,99548
